Home > Products > Valid Products > TAF

000
FTUS45 KLKN 212300
TAFWMC
TAF
KWMC 212320Z 2200/2224 31006KT P6SM FEW150 SCT200
     FM220600 VRB06KT P6SM FEW090 SCT130 BKN200=



000
FTUS45 KLKN 212300
TAFELY
TAF
KELY 212320Z 2200/2224 30009KT P6SM SCT110 BKN130
     FM220100 17006KT P6SM SCT110 BKN130=



000
FTUS45 KLKN 212300
TAFEKO
TAF
KEKO 212320Z 2200/2224 VRB06KT P6SM FEW150
     FM220600 VRB06KT P6SM FEW090 SCT130 BKN200=



000
FTUS45 KLKN 212300
TAFTPH
TAF
KTPH 212320Z 2200/2224 34011KT P6SM SCT110 BKN150
     FM220900 01006KT P6SM FEW110 BKN150
     FM221800 VRB06KT P6SM SCT150 BKN170=



000
FTUS45 KLKN 212300
TAFTPH
TAF
KTPH 212320Z 2200/2224 34011KT P6SM SCT110 BKN150
     FM220900 01006KT P6SM FEW110 BKN150
     FM221800 VRB06KT P6SM SCT150 BKN170=



000
FTUS45 KLKN 212300
TAFELY
TAF
KELY 212320Z 2200/2224 30009KT P6SM SCT110 BKN130
     FM220100 17006KT P6SM SCT110 BKN130=



000
FTUS45 KLKN 212300
TAFEKO
TAF
KEKO 212320Z 2200/2224 VRB06KT P6SM FEW150
     FM220600 VRB06KT P6SM FEW090 SCT130 BKN200=



000
FTUS45 KLKN 212300
TAFWMC
TAF
KWMC 212320Z 2200/2224 31006KT P6SM FEW150 SCT200
     FM220600 VRB06KT P6SM FEW090 SCT130 BKN200=



000
FTUS45 KLKN 212200 AAA
TAFTPH
TAF AMD
KTPH 212204Z 2122/2218 33010G20KT P6SM FEW110 SCT150
     FM220100 34011KT P6SM SCT110 BKN150
     FM220900 01006KT P6SM SCT110 BKN150=



000
FTUS45 KLKN 212200 AAA
TAFTPH
TAF AMD
KTPH 212204Z 2122/2218 33010G20KT P6SM FEW110 SCT150
     FM220100 34011KT P6SM SCT110 BKN150
     FM220900 01006KT P6SM SCT110 BKN150=



000
FTUS45 KLKN 211900 AAA
TAFWMC
TAF AMD
KWMC 211918Z 2119/2218 25006KT P6SM FEW040 FEW130 SCT200
     FM220600 VRB06KT P6SM SCT130 BKN150=



000
FTUS45 KLKN 211700
TAFEKO
TAF
KEKO 211725Z 2118/2218 26010G20KT P6SM FEW060 FEW130
     FM220000 VRB06KT P6SM SCT130 BKN150=



000
FTUS45 KLKN 211700
TAFTPH
TAF
KTPH 211725Z 2118/2218 33011KT P6SM FEW110 SCT130
     FM220900 01006KT P6SM FEW130 BKN150=



000
FTUS45 KLKN 211700
TAFELY
TAF
KELY 211725Z 2118/2218 32010KT P6SM SCT130
     FM220100 17006KT P6SM FEW130 BKN150=



000
FTUS45 KLKN 211700
TAFWMC
TAF
KWMC 211725Z 2118/2218 23006KT P6SM FEW040 FEW130 SCT200
     FM220600 VRB06KT P6SM SCT130 BKN150=



000
FTUS45 KLKN 211600 AAB
TAFELY
TAF AMD
KELY 211601Z 2116/2212 32010KT P6SM SKC
     FM211800 29011KT P6SM FEW060 SCT150
     FM220200 34007KT P6SM SKC=



000
FTUS45 KLKN 211600 AAB
TAFELY
TAF AMD
KELY 211601Z 2116/2212 32010KT P6SM SKC
     FM211800 29011KT P6SM FEW060 SCT150
     FM220200 34007KT P6SM SKC=



000
FTUS45 KLKN 211600 AAB
TAFELY
TAF AMD
KELY 211601Z 2116/2212 32010KT P6SM SKC
     FM211800 29011KT P6SM FEW060 SCT150
     FM220200 34007KT P6SM SKC=



000
FTUS45 KLKN 211600 AAB
TAFELY
TAF AMD
KELY 211601Z 2116/2212 32010KT P6SM SKC
     FM211800 29011KT P6SM FEW060 SCT150
     FM220200 34007KT P6SM SKC=



000
FTUS45 KLKN 211400 AAA
TAFELY
TAF AMD
KELY 211419Z 2114/2212 18010KT P6SM SKC
     FM211800 29011KT P6SM FEW060 SCT150
     FM220200 34007KT P6SM SKC=



000
FTUS45 KLKN 211400 AAA
TAFELY
TAF AMD
KELY 211419Z 2114/2212 18010KT P6SM SKC
     FM211800 29011KT P6SM FEW060 SCT150
     FM220200 34007KT P6SM SKC=



000
FTUS45 KLKN 211100
TAFELY
TAF
KELY 211120Z 2112/2212 17012G20KT P6SM SKC
     FM211800 29011KT P6SM FEW060 SCT150
     FM220200 34007KT P6SM SKC=



000
FTUS45 KLKN 211100
TAFELY
TAF
KELY 211120Z 2112/2212 17012G20KT P6SM SKC
     FM211800 29011KT P6SM FEW060 SCT150
     FM220200 34007KT P6SM SKC=



000
FTUS45 KLKN 211100
TAFTPH
TAF
KTPH 211120Z 2112/2212 36008KT P6SM SKC
     FM211800 32008G15KT P6SM SKC
     FM220000 33008KT P6SM SKC=



000
FTUS45 KLKN 211100
TAFWMC
TAF
KWMC 211120Z 2112/2212 23010KT P6SM SCT060 SCT150
     FM212000 29005KT P6SM FEW070 SCT150
     FM220300 VRB04KT P6SM FEW150=



000
FTUS45 KLKN 211100
TAFTPH
TAF
KTPH 211120Z 2112/2212 36008KT P6SM SKC
     FM211800 32008G15KT P6SM SKC
     FM220000 33008KT P6SM SKC=



000
FTUS45 KLKN 211100
TAFWMC
TAF
KWMC 211120Z 2112/2212 23010KT P6SM SCT060 SCT150
     FM212000 29005KT P6SM FEW070 SCT150
     FM220300 VRB04KT P6SM FEW150=



000
FTUS45 KLKN 211100
TAFEKO
TAF
KEKO 211120Z 2112/2212 21006KT P6SM VCSH SCT060 BKN100
      TEMPO 2112/2114 VRB10G18KT
     FM211400 25011KT P6SM FEW060 FEW200
     FM212000 26008KT P6SM FEW060 SCT150 BKN200
     FM220400 VRB03KT P6SM SKC=



000
FTUS45 KLKN 211100
TAFTPH
TAF
KTPH 211120Z 2112/2212 36008KT P6SM SKC
     FM211800 32008G15KT P6SM SKC
     FM220000 33008KT P6SM SKC=



000
FTUS45 KLKN 211100
TAFELY
TAF
KELY 211120Z 2112/2212 17012G20KT P6SM SKC
     FM211800 29011KT P6SM FEW060 SCT150
     FM220200 34007KT P6SM SKC=



000
FTUS45 KLKN 211100
TAFEKO
TAF
KEKO 211120Z 2112/2212 21006KT P6SM VCSH SCT060 BKN100
      TEMPO 2112/2114 VRB10G18KT
     FM211400 25011KT P6SM FEW060 FEW200
     FM212000 26008KT P6SM FEW060 SCT150 BKN200
     FM220400 VRB03KT P6SM SKC=



000
FTUS45 KLKN 211100
TAFWMC
TAF
KWMC 211120Z 2112/2212 23010KT P6SM SCT060 SCT150
     FM212000 29005KT P6SM FEW070 SCT150
     FM220300 VRB04KT P6SM FEW150=



000
FTUS45 KLKN 211100
TAFELY
TAF
KELY 211120Z 2112/2212 17012G20KT P6SM SKC
     FM211800 29011KT P6SM FEW060 SCT150
     FM220200 34007KT P6SM SKC=



000
FTUS45 KLKN 211100
TAFWMC
TAF
KWMC 211120Z 2112/2212 23010KT P6SM SCT060 SCT150
     FM212000 29005KT P6SM FEW070 SCT150
     FM220300 VRB04KT P6SM FEW150=



000
FTUS45 KLKN 211100
TAFTPH
TAF
KTPH 211120Z 2112/2212 36008KT P6SM SKC
     FM211800 32008G15KT P6SM SKC
     FM220000 33008KT P6SM SKC=



000
FTUS45 KLKN 211100
TAFEKO
TAF
KEKO 211120Z 2112/2212 21006KT P6SM VCSH SCT060 BKN100
      TEMPO 2112/2114 VRB10G18KT
     FM211400 25011KT P6SM FEW060 FEW200
     FM212000 26008KT P6SM FEW060 SCT150 BKN200
     FM220400 VRB03KT P6SM SKC=



000
FTUS45 KLKN 211100
TAFEKO
TAF
KEKO 211120Z 2112/2212 21006KT P6SM VCSH SCT060 BKN100
      TEMPO 2112/2114 VRB10G18KT
     FM211400 25011KT P6SM FEW060 FEW200
     FM212000 26008KT P6SM FEW060 SCT150 BKN200
     FM220400 VRB03KT P6SM SKC=



000
FTUS45 KLKN 210900 AAA
TAFEKO
TAF AMD
KEKO 210943Z 2110/2206 20013KT P6SM VCTS SCT045CB BKN100
      TEMPO 2110/2113 VRB15G28KT -TSRA BKN050CB
     FM211400 25007KT P6SM FEW060 FEW200
     FM212000 26008KT P6SM FEW060 SCT150 BKN200
     FM220400 VRB03KT P6SM SKC=



000
FTUS45 KLKN 210900 AAA
TAFEKO
TAF AMD
KEKO 210943Z 2110/2206 20013KT P6SM VCTS SCT045CB BKN100
      TEMPO 2110/2113 VRB15G28KT -TSRA BKN050CB
     FM211400 25007KT P6SM FEW060 FEW200
     FM212000 26008KT P6SM FEW060 SCT150 BKN200
     FM220400 VRB03KT P6SM SKC=



000
FTUS45 KLKN 210500
TAFELY
TAF
KELY 210522Z 2106/2206 17014G24KT P6SM FEW090 BKN150
     FM211000 19008KT P6SM BKN090 BKN150
     FM211800 29011KT P6SM FEW060 SCT150
     FM220200 34007KT P6SM SKC=



000
FTUS45 KLKN 210500
TAFEKO
TAF
KEKO 210522Z 2106/2206 18010G18KT P6SM BKN100 OVC150
     FM210900 23010G17KT P6SM VCSH OVC060
     FM211400 25007KT P6SM FEW060 FEW200
     FM212000 26008KT P6SM FEW060 SCT150 BKN200
     FM220400 VRB03KT P6SM SKC=



000
FTUS45 KLKN 210500
TAFTPH
TAF
KTPH 210522Z 2106/2206 17010KT P6SM SCT150
     FM211800 32008G18KT P6SM SKC
     FM220000 33008KT P6SM SKC=



000
FTUS45 KLKN 210500
TAFTPH
TAF
KTPH 210522Z 2106/2206 17010KT P6SM SCT150
     FM211800 32008G18KT P6SM SKC
     FM220000 33008KT P6SM SKC=



000
FTUS45 KLKN 210500
TAFELY
TAF
KELY 210522Z 2106/2206 17014G24KT P6SM FEW090 BKN150
     FM211000 19008KT P6SM BKN090 BKN150
     FM211800 29011KT P6SM FEW060 SCT150
     FM220200 34007KT P6SM SKC=



000
FTUS45 KLKN 210500
TAFEKO
TAF
KEKO 210522Z 2106/2206 18010G18KT P6SM BKN100 OVC150
     FM210900 23010G17KT P6SM VCSH OVC060
     FM211400 25007KT P6SM FEW060 FEW200
     FM212000 26008KT P6SM FEW060 SCT150 BKN200
     FM220400 VRB03KT P6SM SKC=



000
FTUS45 KLKN 210500
TAFWMC
TAF
KWMC 210522Z 2106/2206 29007KT P6SM VCSH BKN070 OVC150
     FM211200 27003KT P6SM SCT070 BKN150
     FM212000 29005KT P6SM FEW070 SCT150
     FM220300 VRB04KT P6SM FEW150=



000
FTUS45 KLKN 210500
TAFWMC
TAF
KWMC 210522Z 2106/2206 29007KT P6SM VCSH BKN070 OVC150
     FM211200 27003KT P6SM SCT070 BKN150
     FM212000 29005KT P6SM FEW070 SCT150
     FM220300 VRB04KT P6SM FEW150=



000
FTUS45 KLKN 202300
TAFTPH
TAF
KTPH 202324Z 2100/2124 19017KT P6SM BKN150
     FM210300 VRB06KT P6SM SCT150
     FM210600 34010KT P6SM SKC
     FM211800 32008G18KT P6SM SKC=



000
FTUS45 KLKN 202300
TAFEKO
TAF
KEKO 202324Z 2100/2124 19010G20KT P6SM BKN120
     FM210600 22007KT P6SM VCSH OVC050
     FM211400 25007KT P6SM FEW050 SCT200=



000
FTUS45 KLKN 202300
TAFWMC
TAF
KWMC 202324Z 2100/2124 20010KT P6SM BKN120
     FM210600 24007KT P6SM VCSH OVC050
     FM211400 27003KT P6SM FEW050 SCT200=



000
FTUS45 KLKN 202300
TAFELY
TAF
KELY 202324Z 2100/2124 18014G24KT P6SM BKN090
     FM211000 19008KT P6SM BKN080
     FM211800 29011KT P6SM SCT080=



000
FTUS45 KLKN 202300
TAFWMC
TAF
KWMC 202324Z 2100/2124 20010KT P6SM BKN120
     FM210600 24007KT P6SM VCSH OVC050
     FM211400 27003KT P6SM FEW050 SCT200=



000
FTUS45 KLKN 202300
TAFTPH
TAF
KTPH 202324Z 2100/2124 19017KT P6SM BKN150
     FM210300 VRB06KT P6SM SCT150
     FM210600 34010KT P6SM SKC
     FM211800 32008G18KT P6SM SKC=



000
FTUS45 KLKN 202300
TAFELY
TAF
KELY 202324Z 2100/2124 18014G24KT P6SM BKN090
     FM211000 19008KT P6SM BKN080
     FM211800 29011KT P6SM SCT080=



000
FTUS45 KLKN 202300
TAFEKO
TAF
KEKO 202324Z 2100/2124 19010G20KT P6SM BKN120
     FM210600 22007KT P6SM VCSH OVC050
     FM211400 25007KT P6SM FEW050 SCT200=



000
FTUS45 KLKN 201900 AAA
TAFTPH
TAF AMD
KTPH 201927Z 2019/2118 19012G22KT P6SM SCT200
     FM210200 VRB06KT P6SM SKC
     FM210608 34010KT P6SM SKC=



000
FTUS45 KLKN 201900 AAA
TAFTPH
TAF AMD
KTPH 201927Z 2019/2118 19012G22KT P6SM SCT200
     FM210200 VRB06KT P6SM SKC
     FM210608 34010KT P6SM SKC=



000
FTUS45 KLKN 201900 AAA
TAFEKO
TAF AMD
KEKO 201925Z 2019/2118 20012G22KT P6SM FEW250
     FM210600 21010KT P6SM -SHRA OVC050
     FM211400 24007KT P6SM BKN050=



000
FTUS45 KLKN 201900 AAA
TAFEKO
TAF AMD
KEKO 201925Z 2019/2118 20012G22KT P6SM FEW250
     FM210600 21010KT P6SM -SHRA OVC050
     FM211400 24007KT P6SM BKN050=



000
FTUS45 KLKN 201800 AAA
TAFELY
TAF AMD
KELY 201809Z 2018/2118 17015G25KT P6SM SKC
     FM210300 18012G22KT P6SM BKN120
     FM211200 19007KT P6SM SKC=



000
FTUS45 KLKN 201800 AAA
TAFELY
TAF AMD
KELY 201809Z 2018/2118 17015G25KT P6SM SKC
     FM210300 18012G22KT P6SM BKN120
     FM211200 19007KT P6SM SKC=



000
FTUS45 KLKN 201700
TAFELY
TAF
KELY 201739Z 2018/2118 17011KT P6SM SKC
     FM201900 17015G25KT P6SM SKC=



000
FTUS45 KLKN 201700
TAFTPH
TAF
KTPH 201739Z 2018/2118 17011KT P6SM SKC
     FM202100 17015G25KT P6SM SKC
     FM210200 16007KT P6SM SKC=



000
FTUS45 KLKN 201700
TAFTPH
TAF
KTPH 201739Z 2018/2118 17011KT P6SM SKC
     FM202100 17015G25KT P6SM SKC
     FM210200 16007KT P6SM SKC=



000
FTUS45 KLKN 201700
TAFEKO
TAF
KEKO 201739Z 2018/2118 VRB05KT P6SM SKC
     FM202000 21010G20KT P6SM SCT250
     FM211000 21010KT P6SM -SHRA BKN050
     FM211200 19007KT P6SM SCT050=



000
FTUS45 KLKN 201700
TAFELY
TAF
KELY 201739Z 2018/2118 17011KT P6SM SKC
     FM201900 17015G25KT P6SM SKC=



000
FTUS45 KLKN 201700
TAFEKO
TAF
KEKO 201739Z 2018/2118 VRB05KT P6SM SKC
     FM202000 21010G20KT P6SM SCT250
     FM211000 21010KT P6SM -SHRA BKN050
     FM211200 19007KT P6SM SCT050=



000
FTUS45 KLKN 201700
TAFWMC
TAF
KWMC 201739Z 2018/2118 VRB06KT P6SM FEW200
     FM202000 21010KT P6SM BKN200
     FM210100 VRB06KT P6SM BKN100
     FM210800 27006KT P6SM VCSH BKN050=



000
FTUS45 KLKN 201700
TAFWMC
TAF
KWMC 201739Z 2018/2118 VRB06KT P6SM FEW200
     FM202000 21010KT P6SM BKN200
     FM210100 VRB06KT P6SM BKN100
     FM210800 27006KT P6SM VCSH BKN050=



000
FTUS45 KLKN 201100
TAFWMC
TAF
KWMC 201130Z 2012/2112 VRB06KT P6SM SKC
     FM202000 21010KT P6SM BKN250
     FM210100 VRB06KT P6SM BKN100
     FM211000 27006KT P6SM VCSH BKN050=



000
FTUS45 KLKN 201100
TAFEKO
TAF
KEKO 201130Z 2012/2112 VRB05KT P6SM SKC
     FM202000 21010G20KT P6SM SCT250
     FM211000 21010KT P6SM -SHRA BKN040=



000
FTUS45 KLKN 201100
TAFTPH
TAF
KTPH 201130Z 2012/2112 36007KT P6SM SKC
     FM202100 17015G25KT P6SM SKC
     FM210200 16007KT P6SM SKC=



000
FTUS45 KLKN 201100
TAFWMC
TAF
KWMC 201130Z 2012/2112 VRB06KT P6SM SKC
     FM202000 21010KT P6SM BKN250
     FM210100 VRB06KT P6SM BKN100
     FM211000 27006KT P6SM VCSH BKN050=



000
FTUS45 KLKN 201100
TAFTPH
TAF
KTPH 201130Z 2012/2112 36007KT P6SM SKC
     FM202100 17015G25KT P6SM SKC
     FM210200 16007KT P6SM SKC=



000
FTUS45 KLKN 201100
TAFELY
TAF
KELY 201130Z 2012/2112 17011KT P6SM SKC
     FM201900 17015G25KT P6SM SKC=



000
FTUS45 KLKN 201100
TAFELY
TAF
KELY 201130Z 2012/2112 17011KT P6SM SKC
     FM201900 17015G25KT P6SM SKC=



000
FTUS45 KLKN 200500
TAFTPH
TAF
KTPH 200520Z 2006/2106 VRB06KT P6SM FEW120=



000
FTUS45 KLKN 200500
TAFWMC
TAF
KWMC 200520Z 2006/2106 VRB06KT P6SM SKC=



000
FTUS45 KLKN 200500
TAFEKO
TAF
KEKO 200520Z 2006/2106 VRB05KT P6SM SKC=



000
FTUS45 KLKN 200500
TAFEKO
TAF
KEKO 200520Z 2006/2106 VRB05KT P6SM SKC=



000
FTUS45 KLKN 200500
TAFTPH
TAF
KTPH 200520Z 2006/2106 VRB06KT P6SM FEW120=



000
FTUS45 KLKN 200500
TAFELY
TAF
KELY 200520Z 2006/2106 18009KT P6SM SCT120
     FM201200 15007KT P6SM FEW120
     FM210100 18009KT P6SM FEW120=



000
FTUS45 KLKN 200500
TAFELY
TAF
KELY 200520Z 2006/2106 18009KT P6SM SCT120
     FM201200 15007KT P6SM FEW120
     FM210100 18009KT P6SM FEW120=



000
FTUS45 KLKN 200500
TAFWMC
TAF
KWMC 200520Z 2006/2106 VRB06KT P6SM SKC=



000
FTUS45 KLKN 192300
TAFELY
TAF
KELY 192334Z 2000/2024 17009KT P6SM BKN100
     FM200400 17009KT P6SM SKC
     FM201900 18013G23KT P6SM FEW200=



000
FTUS45 KLKN 192300
TAFELY
TAF
KELY 192334Z 2000/2024 17009KT P6SM BKN100
     FM200400 17009KT P6SM SKC
     FM201900 18013G23KT P6SM FEW200=



000
FTUS45 KLKN 192300
TAFEKO
TAF
KEKO 192334Z 2000/2024 VRB06KT P6SM SKC
     FM202000 20010KT P6SM SCT200=



000
FTUS45 KLKN 192300
TAFELY
TAF
KELY 192334Z 2000/2024 17009KT P6SM BKN100
     FM200400 17009KT P6SM SKC
     FM201900 18013G23KT P6SM FEW200=



000
FTUS45 KLKN 192300
TAFWMC
TAF
KWMC 192334Z 2000/2024 VRB05KT P6SM SKC
     FM202000 22007G17KT P6SM BKN200=



000
FTUS45 KLKN 192300
TAFWMC
TAF
KWMC 192334Z 2000/2024 VRB05KT P6SM SKC
     FM202000 22007G17KT P6SM BKN200=



000
FTUS45 KLKN 192300
TAFTPH
TAF
KTPH 192334Z 2000/2024 17008KT P6SM SCT120
     FM200400 01008KT P6SM SKC
     FM201800 19015G25KT P6SM FEW200=



000
FTUS45 KLKN 192300
TAFEKO
TAF
KEKO 192334Z 2000/2024 VRB06KT P6SM SKC
     FM202000 20010KT P6SM SCT200=



000
FTUS45 KLKN 192300
TAFELY
TAF
KELY 192334Z 2000/2024 17009KT P6SM BKN100
     FM200400 17009KT P6SM SKC
     FM201900 18013G23KT P6SM FEW200=



000
FTUS45 KLKN 192300
TAFTPH
TAF
KTPH 192334Z 2000/2024 17008KT P6SM SCT120
     FM200400 01008KT P6SM SKC
     FM201800 19015G25KT P6SM FEW200=



000
FTUS45 KLKN 192300
TAFWMC
TAF
KWMC 192334Z 2000/2024 VRB05KT P6SM SKC
     FM202000 22007G17KT P6SM BKN200=



000
FTUS45 KLKN 192300
TAFWMC
TAF
KWMC 192334Z 2000/2024 VRB05KT P6SM SKC
     FM202000 22007G17KT P6SM BKN200=



000
FTUS45 KLKN 192300
TAFEKO
TAF
KEKO 192334Z 2000/2024 VRB06KT P6SM SKC
     FM202000 20010KT P6SM SCT200=



000
FTUS45 KLKN 192300
TAFTPH
TAF
KTPH 192334Z 2000/2024 17008KT P6SM SCT120
     FM200400 01008KT P6SM SKC
     FM201800 19015G25KT P6SM FEW200=



000
FTUS45 KLKN 192300
TAFEKO
TAF
KEKO 192334Z 2000/2024 VRB06KT P6SM SKC
     FM202000 20010KT P6SM SCT200=



000
FTUS45 KLKN 192300
TAFTPH
TAF
KTPH 192334Z 2000/2024 17008KT P6SM SCT120
     FM200400 01008KT P6SM SKC
     FM201800 19015G25KT P6SM FEW200=



000
FTUS45 KLKN 191700
TAFELY
TAF
KELY 191720Z 1918/2018 VRB06KT P6SM SCT080
     FM200200 17009KT P6SM SKC=



000
FTUS45 KLKN 191700
TAFELY
TAF
KELY 191720Z 1918/2018 VRB06KT P6SM SCT080
     FM200200 17009KT P6SM SKC=



000
FTUS45 KLKN 191700
TAFEKO
TAF
KEKO 191720Z 1918/2018 VRB06KT P6SM SKC=



000
FTUS45 KLKN 191700
TAFWMC
TAF
KWMC 191720Z 1918/2018 VRB06KT P6SM SKC=



000
FTUS45 KLKN 191700
TAFTPH
TAF
KTPH 191720Z 1918/2018 17006KT P6SM FEW080
     FM200400 01008KT P6SM SKC=



000
FTUS45 KLKN 191700
TAFEKO
TAF
KEKO 191720Z 1918/2018 VRB06KT P6SM SKC=



000
FTUS45 KLKN 191700
TAFTPH
TAF
KTPH 191720Z 1918/2018 17006KT P6SM FEW080
     FM200400 01008KT P6SM SKC=



000
FTUS45 KLKN 191700
TAFWMC
TAF
KWMC 191720Z 1918/2018 VRB06KT P6SM SKC=



000
FTUS45 KLKN 191100
TAFWMC
TAF
KWMC 191120Z 1912/2012 VRB06KT P6SM SKC=



000
FTUS45 KLKN 191100
TAFELY
TAF
KELY 191120Z 1912/2012 17007KT P6SM SKC
     FM191800 VRB06KT P6SM SCT080
     FM200200 18009KT P6SM SKC=



000
FTUS45 KLKN 191100
TAFELY
TAF
KELY 191120Z 1912/2012 17007KT P6SM SKC
     FM191800 VRB06KT P6SM SCT080
     FM200200 18009KT P6SM SKC=



000
FTUS45 KLKN 191100
TAFTPH
TAF
KTPH 191120Z 1912/2012 36010KT P6SM SKC
     FM191700 VRB06KT P6SM FEW080
     FM200400 01008KT P6SM SKC=



000
FTUS45 KLKN 191100
TAFEKO
TAF
KEKO 191120Z 1912/2012 VRB06KT P6SM SKC=



000
FTUS45 KLKN 191100
TAFWMC
TAF
KWMC 191120Z 1912/2012 VRB06KT P6SM SKC=



000
FTUS45 KLKN 191100
TAFEKO
TAF
KEKO 191120Z 1912/2012 VRB06KT P6SM SKC=



000
FTUS45 KLKN 191100
TAFTPH
TAF
KTPH 191120Z 1912/2012 36010KT P6SM SKC
     FM191700 VRB06KT P6SM FEW080
     FM200400 01008KT P6SM SKC=



000
FTUS45 KLKN 190500
TAFTPH
TAF
KTPH 190520Z 1906/2006 VRB06KT P6SM FEW120=



000
FTUS45 KLKN 190500
TAFEKO
TAF
KEKO 190520Z 1906/2006 VRB05KT P6SM SKC=



000
FTUS45 KLKN 190500
TAFELY
TAF
KELY 190520Z 1906/2006 18009KT P6SM SCT120
     FM191200 15007KT P6SM FEW120
     FM200100 18009KT P6SM FEW120=



000
FTUS45 KLKN 190500
TAFTPH
TAF
KTPH 190520Z 1906/2006 VRB06KT P6SM FEW120=



000
FTUS45 KLKN 190500
TAFEKO
TAF
KEKO 190520Z 1906/2006 VRB05KT P6SM SKC=



000
FTUS45 KLKN 190500
TAFELY
TAF
KELY 190520Z 1906/2006 18009KT P6SM SCT120
     FM191200 15007KT P6SM FEW120
     FM200100 18009KT P6SM FEW120=



000
FTUS45 KLKN 190500
TAFWMC
TAF
KWMC 190520Z 1906/2006 VRB06KT P6SM SKC=



000
FTUS45 KLKN 190500
TAFWMC
TAF
KWMC 190520Z 1906/2006 VRB06KT P6SM SKC=



    US Dept of Commerce
    National Oceanic and Atmospheric Administration
    National Weather Service
    1325 East West Highway
    Silver Spring, MD 20910
    Page Author: NWS Internet Services Team
Disclaimer
Information Quality
Credits
Glossary
Privacy Policy
Freedom of Information Act (FOIA)
About Us
Career Opportunities